Time;durP1;ratioP1;P1;durP2;ratioP2;P2;SDS_P1;SDS_P2;PMS_P1;PMS_P2;Temp;Humidity;BMP_temperature;BMP_pressure;BME280_temperature;BME280_humidity;BME280_pressure;Samples;Min_cycle;Max_cycle;Signal;HPM_P1;HPM_P2
2021/12/14 00:00:04;;;;;;;3.60;2.73;;;7.80;99.90;;;;;;5049275;28;20213;-80
2021/12/14 00:02:30;;;;;;;2.80;2.50;;;7.70;99.90;;;;;;5049399;28;20254;-79
2021/12/14 00:05:01;;;;;;;3.23;2.23;;;7.80;99.90;;;;;;5048906;28;20303;-79
2021/12/14 00:07:27;;;;;;;3.33;2.57;;;7.80;99.90;;;;;;5047744;28;20204;-80
2021/12/14 00:10:02;;;;;;;3.13;2.13;;;7.80;99.90;;;;;;5048960;28;20251;-80
2021/12/14 00:15:04;;;;;;;2.50;2.17;;;7.80;99.90;;;;;;5067456;28;20596;-81
2021/12/14 00:17:39;;;;;;;3.03;2.47;;;7.70;99.90;;;;;;5048845;28;20288;-80
2021/12/14 00:20:16;;;;;;;3.60;2.43;;;7.50;99.90;;;;;;5049120;28;20580;-79
2021/12/14 00:25:29;;;;;;;3.43;2.70;;;7.50;99.90;;;;;;5066895;28;20224;-81
2021/12/14 00:27:58;;;;;;;3.27;2.77;;;7.50;99.90;;;;;;5048899;28;20249;-78
2021/12/14 00:30:24;;;;;;;2.80;2.40;;;7.40;99.90;;;;;;5048529;28;20698;-82
2021/12/14 00:32:49;;;;;;;2.93;2.53;;;7.40;99.90;;;;;;5048965;28;20182;-80
2021/12/14 00:35:15;;;;;;;3.07;2.50;;;7.30;99.90;;;;;;5048449;28;20572;-80
2021/12/14 00:37:45;;;;;;;4.50;2.63;;;7.20;99.90;;;;;;5048523;28;20185;-82
2021/12/14 00:40:34;;;;;;;3.90;2.83;;;7.30;99.90;;;;;;5066518;28;20643;-78
2021/12/14 00:43:01;;;;;;;2.93;2.47;;;7.30;99.90;;;;;;5047838;28;20220;-82
2021/12/14 00:45:29;;;;;;;3.00;2.60;;;7.30;99.90;;;;;;5066620;28;20182;-79
2021/12/14 00:47:56;;;;;;;3.63;3.03;;;7.30;99.90;;;;;;5066591;28;20185;-79
2021/12/14 00:50:24;;;;;;;3.33;2.80;;;7.30;99.90;;;;;;5048199;28;20223;-80
2021/12/14 00:52:50;;;;;;;3.40;2.70;;;7.30;99.90;;;;;;5048302;28;20205;-78
2021/12/14 00:55:21;;;;;;;4.70;2.57;;;7.30;99.90;;;;;;5048719;28;21148;-81
2021/12/14 00:57:46;;;;;;;3.83;2.60;;;7.30;99.90;;;;;;5048714;28;20230;-83
2021/12/14 01:00:19;;;;;;;3.87;2.60;;;7.40;99.90;;;;;;5049632;28;20299;-78
2021/12/14 01:02:45;;;;;;;3.40;2.70;;;7.50;99.90;;;;;;5067840;28;20215;-81
2021/12/14 01:05:15;;;;;;;3.67;2.60;;;7.50;99.90;;;;;;5066705;28;20314;-78
2021/12/14 01:07:41;;;;;;;3.03;2.30;;;7.50;99.90;;;;;;5049467;28;20184;-79
2021/12/14 01:10:19;;;;;;;2.97;2.33;;;7.40;99.90;;;;;;5049803;28;20782;-79
2021/12/14 01:12:50;;;;;;;3.10;2.70;;;7.40;99.90;;;;;;5049528;28;20185;-82
2021/12/14 01:15:31;;;;;;;3.73;2.70;;;7.30;99.90;;;;;;5068114;28;20173;-82
2021/12/14 01:18:17;;;;;;;3.93;2.67;;;7.50;99.90;;;;;;5050037;28;20261;-82
2021/12/14 01:20:49;;;;;;;4.17;2.57;;;7.60;99.90;;;;;;5065785;28;20271;-79
2021/12/14 01:23:27;;;;;;;3.23;2.57;;;7.40;99.90;;;;;;5066626;28;20193;-79
2021/12/14 01:25:56;;;;;;;3.93;2.90;;;7.50;99.90;;;;;;5067717;28;20205;-82
2021/12/14 01:28:26;;;;;;;2.80;2.50;;;7.30;99.90;;;;;;5068151;28;20176;-82
2021/12/14 01:31:09;;;;;;;4.03;2.70;;;7.20;99.90;;;;;;5067891;28;20193;-78
2021/12/14 01:33:38;;;;;;;4.33;2.60;;;7.30;99.90;;;;;;5048753;28;20189;-81
2021/12/14 01:36:11;;;;;;;3.63;2.77;;;7.30;99.90;;;;;;5058062;28;20248;-79
2021/12/14 01:38:47;;;;;;;3.20;2.40;;;7.30;99.90;;;;;;5066496;28;20675;-80
2021/12/14 01:41:15;;;;;;;5.03;2.57;;;7.40;99.90;;;;;;5048178;28;20626;-80
2021/12/14 01:43:53;;;;;;;3.80;2.73;;;7.30;99.90;;;;;;5048171;28;20220;-79
2021/12/14 01:46:29;;;;;;;4.13;3.10;;;7.20;99.90;;;;;;5048940;28;20181;-79
2021/12/14 01:48:55;;;;;;;3.47;2.63;;;7.20;99.90;;;;;;5058063;28;20227;-79
2021/12/14 01:51:21;;;;;;;3.80;3.00;;;7.20;99.90;;;;;;5066888;28;20207;-81
2021/12/14 01:53:50;;;;;;;4.17;2.60;;;7.20;99.90;;;;;;5049441;28;20185;-82
2021/12/14 01:56:21;;;;;;;3.47;2.83;;;7.20;99.90;;;;;;5049455;28;20182;-80
2021/12/14 01:58:52;;;;;;;3.97;3.20;;;7.20;99.90;;;;;;5067149;28;20201;-82
2021/12/14 02:01:21;;;;;;;4.00;3.10;;;7.40;99.90;;;;;;5049024;28;20193;-80
2021/12/14 02:03:57;;;;;;;3.67;3.03;;;7.30;99.90;;;;;;5066969;28;20342;-79
2021/12/14 02:06:27;;;;;;;4.80;3.60;;;7.40;99.90;;;;;;5046571;28;20177;-81
2021/12/14 02:09:01;;;;;;;4.80;3.83;;;7.50;99.90;;;;;;5048866;28;20508;-82
2021/12/14 02:11:32;;;;;;;5.40;4.20;;;7.40;99.90;;;;;;5058066;28;20184;-80
2021/12/14 02:13:58;;;;;;;6.70;4.33;;;7.50;99.90;;;;;;5049136;28;20344;-79
2021/12/14 02:16:24;;;;;;;5.83;4.50;;;7.50;99.90;;;;;;5049082;28;20770;-82
2021/12/14 02:18:57;;;;;;;6.30;4.93;;;7.40;99.90;;;;;;5049110;28;20193;-80
2021/12/14 02:21:23;;;;;;;6.30;5.40;;;7.40;99.90;;;;;;5049566;28;20182;-80
2021/12/14 02:23:52;;;;;;;8.47;5.20;;;7.40;99.90;;;;;;5052107;28;20285;-80
2021/12/14 02:26:20;;;;;;;8.53;5.33;;;7.40;99.90;;;;;;5068638;28;20190;-79
2021/12/14 02:28:46;;;;;;;7.23;5.03;;;7.40;99.90;;;;;;5050412;28;20732;-80
2021/12/14 02:31:15;;;;;;;8.13;5.73;;;7.40;99.90;;;;;;5069188;28;20200;-82
2021/12/14 02:33:44;;;;;;;8.80;5.87;;;7.40;99.90;;;;;;5059892;28;20223;-81
2021/12/14 02:36:17;;;;;;;8.87;6.00;;;7.40;99.90;;;;;;5059291;28;20184;-80
2021/12/14 02:38:48;;;;;;;9.33;6.03;;;7.40;99.90;;;;;;5051005;28;20218;-80
2021/12/14 02:41:14;;;;;;;9.97;6.73;;;7.40;99.90;;;;;;5052321;28;20184;-81
2021/12/14 02:43:52;;;;;;;7.13;5.20;;;7.40;99.90;;;;;;5072620;28;20248;-79
2021/12/14 02:46:33;;;;;;;7.40;5.47;;;7.40;99.90;;;;;;5071980;28;20192;-78
2021/12/14 02:49:03;;;;;;;7.70;5.47;;;7.30;99.90;;;;;;5053795;28;20189;-82
2021/12/14 02:51:33;;;;;;;7.33;5.40;;;7.30;99.90;;;;;;5071782;28;20188;-79
2021/12/14 02:54:04;;;;;;;7.70;5.63;;;7.30;99.90;;;;;;5062914;28;20593;-79
2021/12/14 02:56:34;;;;;;;7.83;6.17;;;7.30;99.90;;;;;;5070599;28;20257;-78
2021/12/14 02:59:15;;;;;;;7.83;5.50;;;7.30;99.90;;;;;;5049511;28;20228;-80
2021/12/14 03:01:42;;;;;;;8.00;5.87;;;7.30;99.90;;;;;;5050373;28;20728;-81
2021/12/14 03:04:10;;;;;;;7.30;5.47;;;7.30;99.90;;;;;;5059329;28;20209;-79
2021/12/14 03:06:48;;;;;;;7.13;5.10;;;7.30;99.90;;;;;;5050526;28;20190;-78
2021/12/14 03:09:35;;;;;;;7.60;5.10;;;7.20;99.90;;;;;;5050792;28;20740;-80
2021/12/14 03:12:14;;;;;;;7.30;4.70;;;7.20;99.90;;;;;;5069077;28;20169;-78
2021/12/14 03:14:47;;;;;;;7.37;5.00;;;7.30;99.90;;;;;;5068612;28;20184;-79
2021/12/14 03:17:13;;;;;;;7.40;4.63;;;7.40;99.90;;;;;;5050033;28;20185;-79
2021/12/14 03:19:38;;;;;;;7.33;4.97;;;7.30;99.90;;;;;;5067622;28;20205;-80
2021/12/14 03:22:23;;;;;;;6.97;4.67;;;7.30;99.90;;;;;;5050279;28;20242;-78
2021/12/14 03:24:49;;;;;;;7.17;4.67;;;7.40;99.90;;;;;;5050213;28;20572;-79
2021/12/14 03:27:15;;;;;;;6.20;4.73;;;7.40;99.90;;;;;;5067673;28;20184;-80
2021/12/14 03:29:41;;;;;;;6.93;4.63;;;7.30;99.90;;;;;;5067975;28;20282;-78
2021/12/14 03:32:06;;;;;;;6.77;4.37;;;7.30;99.90;;;;;;5068176;28;20177;-80
2021/12/14 03:34:37;;;;;;;5.63;4.07;;;7.30;99.90;;;;;;5066663;28;20174;-80
2021/12/14 03:37:11;;;;;;;5.00;4.13;;;7.30;99.90;;;;;;5049479;28;20546;-80
2021/12/14 03:39:45;;;;;;;5.43;3.80;;;7.30;99.90;;;;;;5049288;28;20215;-79
2021/12/14 03:42:19;;;;;;;6.33;3.90;;;7.30;99.90;;;;;;5049925;28;20177;-80
2021/12/14 03:44:50;;;;;;;4.33;3.70;;;7.40;99.90;;;;;;5067335;28;20366;-80
2021/12/14 03:47:39;;;;;;;6.37;4.13;;;7.20;99.90;;;;;;5067858;28;20193;-81
2021/12/14 03:50:34;;;;;;;4.43;3.00;;;7.30;99.90;;;;;;5059135;28;20189;-77
2021/12/14 03:53:00;;;;;;;7.27;3.70;;;7.40;99.90;;;;;;5064411;28;20690;-81
2021/12/14 03:55:34;;;;;;;4.10;3.23;;;7.40;99.90;;;;;;5049977;28;20186;-80
2021/12/14 03:58:00;;;;;;;5.80;3.47;;;7.40;99.90;;;;;;5048989;28;20185;-79
2021/12/14 04:00:42;;;;;;;4.20;3.50;;;7.40;99.90;;;;;;5067985;28;20206;-80
2021/12/14 04:03:11;;;;;;;4.37;3.23;;;7.30;99.90;;;;;;5065031;28;20198;-80
2021/12/14 04:05:41;;;;;;;3.43;3.07;;;7.30;99.90;;;;;;5048398;28;20848;-81
2021/12/14 04:08:08;;;;;;;3.90;3.03;;;7.30;99.90;;;;;;5048785;28;20173;-81
2021/12/14 04:10:36;;;;;;;5.30;3.60;;;7.40;99.90;;;;;;5065452;28;20221;-78
2021/12/14 04:13:03;;;;;;;4.37;3.10;;;7.30;99.90;;;;;;5054909;28;20194;-81
2021/12/14 04:15:29;;;;;;;4.10;3.20;;;7.20;99.90;;;;;;5048066;28;20189;-78
2021/12/14 04:17:56;;;;;;;5.23;3.53;;;7.20;99.90;;;;;;5065072;28;20204;-80
2021/12/14 04:20:24;;;;;;;3.77;3.07;;;7.10;99.90;;;;;;5047840;28;20201;-82
2021/12/14 04:22:50;;;;;;;4.63;3.30;;;7.10;99.90;;;;;;5066240;28;20197;-80
2021/12/14 04:25:23;;;;;;;5.07;3.60;;;7.10;99.90;;;;;;5048214;28;20182;-81
2021/12/14 04:27:51;;;;;;;5.20;3.67;;;7.10;99.90;;;;;;5064901;28;20255;-80
2021/12/14 04:30:19;;;;;;;4.63;3.37;;;7.00;99.90;;;;;;5064674;28;20205;-81
2021/12/14 04:32:46;;;;;;;4.57;3.53;;;7.00;99.90;;;;;;5048763;28;20342;-79
2021/12/14 04:35:12;;;;;;;5.63;3.83;;;7.10;99.90;;;;;;5064963;28;20186;-81
2021/12/14 04:37:40;;;;;;;4.43;3.60;;;7.10;99.90;;;;;;5048030;28;20191;-79
2021/12/14 04:54:09;;;;;;;5.13;3.83;;;7.10;99.90;;;;;;5066985;28;20552;-79
2021/12/14 04:56:46;;;;;;;5.43;4.13;;;7.10;99.90;;;;;;5048655;28;20189;-79
2021/12/14 04:59:20;;;;;;;6.37;4.37;;;7.00;99.90;;;;;;5048371;28;20219;-80
2021/12/14 05:01:47;;;;;;;5.40;3.83;;;7.00;99.90;;;;;;5066162;28;20322;-81
2021/12/14 05:04:18;;;;;;;3.97;3.20;;;7.00;99.90;;;;;;5066328;28;20254;-78
2021/12/14 05:06:50;;;;;;;4.87;3.27;;;7.00;99.90;;;;;;5066598;28;20543;-80
2021/12/14 05:09:30;;;;;;;5.43;4.23;;;7.10;99.90;;;;;;5049467;28;20241;-75
2021/12/14 05:12:06;;;;;;;5.23;3.70;;;6.90;99.90;;;;;;5063812;28;20343;-81
2021/12/14 05:14:34;;;;;;;4.27;3.27;;;7.10;99.90;;;;;;5046182;28;20192;-81
2021/12/14 05:17:06;;;;;;;5.83;3.43;;;7.10;99.90;;;;;;5046073;28;20662;-78
2021/12/14 05:19:35;;;;;;;4.10;3.40;;;7.00;99.90;;;;;;5046133;28;20674;-78
2021/12/14 05:22:07;;;;;;;5.40;3.70;;;7.00;99.90;;;;;;5046119;28;20212;-81
2021/12/14 05:24:36;;;;;;;4.17;3.00;;;7.00;99.90;;;;;;5064293;28;20202;-78
2021/12/14 05:27:06;;;;;;;5.00;3.50;;;7.00;99.90;;;;;;5064020;28;20272;-78
2021/12/14 05:29:32;;;;;;;4.77;3.40;;;7.00;99.90;;;;;;5063976;28;20252;-78
2021/12/14 05:32:00;;;;;;;4.63;2.53;;;7.00;99.90;;;;;;5045612;28;20262;-77
2021/12/14 05:34:27;;;;;;;3.37;3.00;;;7.00;99.90;;;;;;5045707;28;20182;-80
2021/12/14 05:36:54;;;;;;;4.27;3.40;;;7.10;99.90;;;;;;5046040;28;20297;-80
2021/12/14 05:44:24;;;;;;;4.60;3.00;;;7.10;99.90;;;;;;5064263;28;20274;-79
2021/12/14 05:46:54;;;;;;;5.53;3.33;;;7.00;99.90;;;;;;5045148;28;20177;-80
2021/12/14 05:49:23;;;;;;;4.53;3.17;;;7.00;99.90;;;;;;5064021;28;20200;-80
2021/12/14 05:51:51;;;;;;;6.03;3.23;;;6.90;99.90;;;;;;5064121;28;20192;-78
2021/12/14 05:54:24;;;;;;;4.70;3.57;;;6.90;99.90;;;;;;5045994;28;20246;-76
2021/12/14 05:56:51;;;;;;;4.80;3.47;;;7.00;99.90;;;;;;5047020;28;20189;-81
2021/12/14 05:59:22;;;;;;;5.33;3.90;;;6.90;99.90;;;;;;5050170;28;20359;-81
2021/12/14 06:01:49;;;;;;;4.37;3.70;;;7.00;99.90;;;;;;5067982;28;20185;-78
2021/12/14 06:04:15;;;;;;;4.00;3.10;;;7.00;99.90;;;;;;5067298;28;20860;-80
2021/12/14 06:06:53;;;;;;;4.40;3.13;;;6.90;99.90;;;;;;5049289;28;20234;-79
2021/12/14 06:09:29;;;;;;;5.07;3.87;;;6.90;99.90;;;;;;5067268;28;20193;-76
2021/12/14 06:12:09;;;;;;;3.90;3.30;;;6.90;99.90;;;;;;5067305;28;20176;-80
2021/12/14 06:14:42;;;;;;;5.60;3.60;;;6.90;99.90;;;;;;5067569;28;20189;-83
2021/12/14 06:17:08;;;;;;;7.07;4.47;;;7.10;99.90;;;;;;5049136;28;20583;-78
2021/12/14 06:19:39;;;;;;;6.00;4.17;;;7.00;99.90;;;;;;5067487;28;20228;-78
2021/12/14 06:22:12;;;;;;;5.90;4.20;;;7.00;99.90;;;;;;5049533;28;20178;-76
2021/12/14 06:24:41;;;;;;;6.30;4.67;;;7.00;99.90;;;;;;5067197;28;20224;-78
2021/12/14 06:27:11;;;;;;;5.63;4.63;;;7.00;99.90;;;;;;5067407;28;20181;-78
2021/12/14 06:29:47;;;;;;;7.03;4.50;;;7.00;99.90;;;;;;5048838;28;20201;-80
2021/12/14 06:32:23;;;;;;;6.57;4.60;;;7.10;99.90;;;;;;5067646;28;20618;-81
2021/12/14 06:34:52;;;;;;;8.07;5.40;;;7.10;99.90;;;;;;5049031;28;20631;-77
2021/12/14 06:37:27;;;;;;;5.87;4.87;;;7.20;99.90;;;;;;5067052;28;20549;-78
2021/12/14 06:40:22;;;;;;;6.90;4.87;;;7.10;99.90;;;;;;5066579;28;20638;-75
2021/12/14 06:42:52;;;;;;;8.27;5.53;;;7.20;99.90;;;;;;5064106;28;20686;-79
2021/12/14 06:45:21;;;;;;;7.37;5.47;;;7.20;99.90;;;;;;5049002;28;20532;-81
2021/12/14 06:47:50;;;;;;;7.73;5.17;;;7.10;99.90;;;;;;5048720;28;20182;-77
2021/12/14 06:50:26;;;;;;;7.87;5.27;;;7.20;99.90;;;;;;5066429;28;20419;-81
2021/12/14 06:52:59;;;;;;;7.40;5.57;;;7.00;99.90;;;;;;5048904;28;20260;-78
2021/12/14 06:55:26;;;;;;;7.13;5.53;;;7.00;99.90;;;;;;5049053;28;20223;-76
2021/12/14 06:57:52;;;;;;;6.77;5.13;;;7.00;99.90;;;;;;5048590;28;20188;-76
2021/12/14 07:00:18;;;;;;;7.47;5.17;;;7.00;99.90;;;;;;5048250;28;20205;-78
2021/12/14 07:02:48;;;;;;;7.83;5.70;;;7.10;99.90;;;;;;5066269;28;20235;-76
2021/12/14 07:05:27;;;;;;;9.63;6.40;;;7.20;99.90;;;;;;5048184;28;20239;-77
2021/12/14 07:07:52;;;;;;;7.90;5.77;;;7.10;99.90;;;;;;5047348;28;20178;-77
2021/12/14 07:10:18;;;;;;;8.83;6.10;;;7.10;99.90;;;;;;5066244;28;20258;-79
2021/12/14 07:12:45;;;;;;;8.07;5.63;;;7.20;99.90;;;;;;5047971;28;20196;-80
2021/12/14 07:15:15;;;;;;;8.70;5.93;;;7.20;99.90;;;;;;5065947;28;20181;-76
2021/12/14 07:17:46;;;;;;;9.77;6.40;;;7.10;99.90;;;;;;5048048;28;20221;-76
2021/12/14 07:20:11;;;;;;;8.87;5.90;;;7.10;99.90;;;;;;5048031;28;20205;-80
2021/12/14 07:22:40;;;;;;;8.70;6.00;;;7.10;99.90;;;;;;5047782;28;20362;-79
2021/12/14 07:25:15;;;;;;;8.23;5.90;;;7.10;99.90;;;;;;5050108;28;20182;-76
2021/12/14 07:27:45;;;;;;;8.43;5.63;;;7.10;99.90;;;;;;5065588;28;20607;-78
2021/12/14 07:30:29;;;;;;;7.63;5.60;;;7.10;99.90;;;;;;5047638;28;20208;-77
2021/12/14 07:33:14;;;;;;;8.43;6.00;;;7.10;99.90;;;;;;5063692;28;20185;-77
2021/12/14 07:36:08;;;;;;;8.40;6.33;;;7.10;99.90;;;;;;5047206;28;20181;-79
2021/12/14 07:38:46;;;;;;;8.87;6.27;;;7.10;99.90;;;;;;5047358;28;20791;-80
2021/12/14 07:41:17;;;;;;;7.70;5.70;;;7.00;99.90;;;;;;5065114;28;20201;-77
2021/12/14 07:43:49;;;;;;;6.97;5.43;;;7.00;99.90;;;;;;5046993;28;20694;-80
2021/12/14 07:46:23;;;;;;;8.97;5.80;;;7.00;99.90;;;;;;5046770;28;20174;-77
2021/12/14 07:48:54;;;;;;;7.83;5.80;;;7.00;99.90;;;;;;5064932;28;20216;-78
2021/12/14 07:51:22;;;;;;;7.30;5.70;;;7.00;99.90;;;;;;5046326;28;20186;-76
2021/12/14 07:53:54;;;;;;;8.10;6.03;;;7.10;99.90;;;;;;5046637;28;20193;-81
2021/12/14 07:56:57;;;;;;;10.10;6.27;;;7.20;99.90;;;;;;5046560;28;20185;-77
2021/12/14 07:59:30;;;;;;;8.43;5.77;;;7.20;99.90;;;;;;5032863;28;20225;-80
2021/12/14 08:02:16;;;;;;;7.43;5.70;;;7.20;99.90;;;;;;5046693;28;20236;-82
2021/12/14 08:04:49;;;;;;;7.37;5.20;;;7.20;99.90;;;;;;5048113;28;20512;-82
2021/12/14 08:07:37;;;;;;;7.53;5.63;;;7.10;99.90;;;;;;5068084;28;20190;-80
2021/12/14 08:10:16;;;;;;;6.40;5.00;;;7.10;99.90;;;;;;5046699;28;20679;-80
2021/12/14 08:12:53;;;;;;;7.33;5.40;;;7.20;99.90;;;;;;5047553;28;20743;-79
2021/12/14 08:15:21;;;;;;;6.77;5.37;;;7.20;99.90;;;;;;5066439;28;20232;-81
2021/12/14 08:17:59;;;;;;;7.20;5.40;;;7.10;99.90;;;;;;5065578;28;20201;-78
2021/12/14 08:20:26;;;;;;;7.67;5.57;;;7.10;99.90;;;;;;5046057;28;20267;-81
2021/12/14 08:22:54;;;;;;;8.27;5.50;;;7.10;99.90;;;;;;5047455;28;20204;-77
2021/12/14 08:25:27;;;;;;;7.90;5.80;;;7.20;99.90;;;;;;5047175;28;20238;-80
2021/12/14 08:28:00;;;;;;;8.80;5.33;;;7.30;99.90;;;;;;5065424;28;20165;-79
2021/12/14 08:30:26;;;;;;;9.33;5.97;;;7.30;99.90;;;;;;5064947;28;20600;-77
2021/12/14 08:32:52;;;;;;;7.73;6.23;;;7.40;99.90;;;;;;5047039;28;20204;-79
2021/12/14 08:35:17;;;;;;;9.17;5.37;;;7.30;99.90;;;;;;5064993;28;20353;-78
2021/12/14 08:37:50;;;;;;;6.53;4.67;;;7.30;99.90;;;;;;5046602;28;20919;-80
2021/12/14 08:40:17;;;;;;;7.30;4.97;;;7.40;99.90;;;;;;5047048;28;20204;-82
2021/12/14 08:43:00;;;;;;;7.50;4.93;;;7.40;99.90;;;;;;5046188;28;20642;-79
2021/12/14 08:45:33;;;;;;;7.03;5.17;;;7.40;99.90;;;;;;5046447;28;20590;-80
2021/12/14 08:48:02;;;;;;;6.97;5.17;;;7.50;99.90;;;;;;5046194;28;20178;-82
2021/12/14 08:50:29;;;;;;;6.57;5.00;;;7.50;99.90;;;;;;5046362;28;20227;-81
2021/12/14 08:52:55;;;;;;;7.50;5.20;;;7.50;99.90;;;;;;5046438;28;20273;-77
2021/12/14 08:55:24;;;;;;;6.37;4.80;;;7.50;99.90;;;;;;5046731;28;20209;-81
2021/12/14 08:57:50;;;;;;;5.93;4.63;;;7.60;99.90;;;;;;5064856;28;20188;-78
2021/12/14 09:00:24;;;;;;;7.37;5.10;;;7.60;99.90;;;;;;5064114;28;20197;-79
2021/12/14 09:02:53;;;;;;;6.17;4.60;;;7.60;99.90;;;;;;5047421;28;20679;-80
2021/12/14 09:05:46;;;;;;;6.27;4.53;;;7.70;99.90;;;;;;5053295;28;20214;-82
2021/12/14 09:08:13;;;;;;;7.43;5.37;;;7.70;99.90;;;;;;5066855;28;20240;-77
2021/12/14 09:10:40;;;;;;;6.93;4.93;;;7.70;99.90;;;;;;5048198;28;20232;-80
2021/12/14 09:13:09;;;;;;;6.57;4.93;;;7.70;99.90;;;;;;5047094;28;20546;-79
2021/12/14 09:15:41;;;;;;;5.97;4.70;;;7.70;99.90;;;;;;5065173;28;20193;-78
2021/12/14 09:18:08;;;;;;;5.97;4.57;;;7.80;99.90;;;;;;5047337;28;20182;-80
2021/12/14 09:20:40;;;;;;;7.20;5.27;;;7.80;99.90;;;;;;5064094;28;20270;-79
2021/12/14 09:23:10;;;;;;;6.93;4.80;;;7.80;99.90;;;;;;5045415;28;20224;-81
2021/12/14 09:25:37;;;;;;;7.47;5.47;;;7.90;99.90;;;;;;5045765;28;20192;-81
2021/12/14 09:28:04;;;;;;;9.57;5.23;;;7.90;99.90;;;;;;5063650;28;20260;-80
2021/12/14 09:30:34;;;;;;;6.30;4.77;;;8.00;99.90;;;;;;5045693;28;20201;-79
2021/12/14 09:33:00;;;;;;;6.83;5.17;;;7.90;99.90;;;;;;5063673;28;20188;-80
2021/12/14 09:35:31;;;;;;;7.17;5.13;;;8.00;99.90;;;;;;5046036;28;20670;-80
2021/12/14 09:37:58;;;;;;;7.27;5.40;;;7.90;99.90;;;;;;5063271;28;20238;-78
2021/12/14 09:40:32;;;;;;;7.60;5.63;;;8.00;99.90;;;;;;5045459;28;20205;-81
2021/12/14 09:42:58;;;;;;;8.63;5.23;;;7.90;99.90;;;;;;5045551;28;20691;-80
2021/12/14 09:45:33;;;;;;;7.03;5.43;;;7.90;99.90;;;;;;5064181;28;20186;-81
2021/12/14 09:48:01;;;;;;;7.20;4.83;;;7.90;99.90;;;;;;5063779;28;20169;-78
2021/12/14 09:50:30;;;;;;;7.00;5.17;;;7.90;99.90;;;;;;5045333;28;20579;-79
2021/12/14 09:52:59;;;;;;;7.17;5.30;;;7.90;99.90;;;;;;5062784;28;20193;-80
2021/12/14 09:55:32;;;;;;;7.40;4.83;;;7.90;99.90;;;;;;5063611;28;20397;-81
2021/12/14 09:58:04;;;;;;;6.00;4.53;;;8.00;99.90;;;;;;5045049;28;20581;-81
2021/12/14 10:00:31;;;;;;;7.30;5.27;;;8.00;99.90;;;;;;5045214;28;20219;-79
2021/12/14 10:03:01;;;;;;;6.63;4.90;;;8.00;99.90;;;;;;5045157;28;20267;-78
2021/12/14 10:05:37;;;;;;;6.63;5.27;;;8.10;99.90;;;;;;5046569;28;20182;-81
2021/12/14 10:08:14;;;;;;;7.30;5.90;;;8.00;99.90;;;;;;5062962;28;20185;-80
2021/12/14 10:10:45;;;;;;;8.23;5.53;;;8.00;99.90;;;;;;5045244;28;20367;-80
2021/12/14 10:13:11;;;;;;;9.00;5.17;;;8.00;99.90;;;;;;5044873;28;20478;-81
2021/12/14 10:15:48;;;;;;;9.13;5.77;;;8.10;99.90;;;;;;5045269;28;20283;-80
2021/12/14 10:18:24;;;;;;;8.03;5.50;;;8.10;99.90;;;;;;5062966;28;20182;-79
2021/12/14 10:21:12;;;;;;;8.23;5.80;;;8.10;99.90;;;;;;5045075;28;20205;-81
2021/12/14 10:23:40;;;;;;;7.97;5.93;;;8.10;99.90;;;;;;5053088;28;20279;-80
2021/12/14 10:26:06;;;;;;;8.37;5.73;;;8.20;99.90;;;;;;5064173;28;20182;-81
2021/12/14 10:28:35;;;;;;;8.80;5.90;;;8.10;99.90;;;;;;5045444;28;20190;-73
2021/12/14 10:31:10;;;;;;;8.37;6.20;;;8.20;99.90;;;;;;5045003;28;20201;-77
2021/12/14 10:33:39;;;;;;;7.47;5.63;;;8.20;99.90;;;;;;5045230;28;20208;-78
2021/12/14 10:36:26;;;;;;;8.87;5.80;;;8.20;99.90;;;;;;5045610;28;20550;-77
2021/12/14 10:39:07;;;;;;;7.77;5.93;;;8.20;99.90;;;;;;5063256;28;20707;-78
2021/12/14 10:44:20;;;;;;;10.13;5.97;;;8.20;99.90;;;;;;5065937;28;20243;-80
2021/12/14 10:46:49;;;;;;;8.57;5.90;;;8.20;99.90;;;;;;5066744;28;20182;-76
2021/12/14 10:49:17;;;;;;;9.33;6.33;;;8.20;99.90;;;;;;5066951;28;20578;-77
2021/12/14 10:51:45;;;;;;;8.83;6.43;;;8.40;99.90;;;;;;5048807;28;20181;-81
2021/12/14 10:54:13;;;;;;;7.67;6.27;;;8.40;99.90;;;;;;5048621;28;20182;-77
2021/12/14 10:56:53;;;;;;;8.47;6.67;;;8.40;99.90;;;;;;5066846;28;20255;-77
2021/12/14 10:59:22;;;;;;;10.00;7.30;;;8.40;99.90;;;;;;5048541;28;20558;-79
2021/12/14 11:01:50;;;;;;;8.10;6.23;;;8.40;99.90;;;;;;5066654;28;20551;-78
2021/12/14 11:04:20;;;;;;;7.40;5.63;;;8.40;99.90;;;;;;5048140;28;20197;-78
2021/12/14 11:06:48;;;;;;;9.17;6.53;;;8.50;99.90;;;;;;5066257;28;20622;-78
2021/12/14 11:09:39;;;;;;;7.73;6.37;;;8.60;99.90;;;;;;5066176;28;20257;-76
2021/12/14 11:12:07;;;;;;;10.70;6.57;;;8.70;99.90;;;;;;5065832;28;20173;-80
2021/12/14 11:14:34;;;;;;;19.47;6.93;;;8.70;99.90;;;;;;5065819;28;20181;-79
2021/12/14 11:19:58;;;;;;;8.43;6.70;;;8.90;99.90;;;;;;5065762;28;20718;-76
2021/12/14 11:22:33;;;;;;;9.60;6.33;;;8.90;99.90;;;;;;5047975;28;20751;-77
2021/12/14 11:25:14;;;;;;;8.17;6.43;;;9.00;99.90;;;;;;5064922;28;20177;-76
2021/12/14 11:27:48;;;;;;;10.03;6.83;;;9.00;99.90;;;;;;5065526;28;20192;-76
2021/12/14 11:30:21;;;;;;;9.63;6.20;;;9.00;99.90;;;;;;5065899;28;20224;-79
2021/12/14 11:33:07;;;;;;;10.57;6.53;;;9.00;99.90;;;;;;5047310;28;20186;-78
2021/12/14 11:35:56;;;;;;;7.70;6.23;;;9.10;99.90;;;;;;5046456;28;20257;-79
2021/12/14 11:38:29;;;;;;;9.83;6.30;;;9.00;99.90;;;;;;5047432;28;20652;-79
2021/12/14 11:40:58;;;;;;;8.23;6.70;;;9.10;99.90;;;;;;5047046;28;20691;-79
2021/12/14 11:43:28;;;;;;;10.20;7.13;;;9.10;99.90;;;;;;5064721;28;20196;-78
2021/12/14 11:45:55;;;;;;;9.53;6.93;;;9.10;99.90;;;;;;5066322;28;20178;-81
2021/12/14 11:48:36;;;;;;;8.93;7.40;;;9.10;99.90;;;;;;5048249;28;20813;-78
2021/12/14 11:51:05;;;;;;;10.27;6.33;;;9.10;99.90;;;;;;5047201;28;20595;-78
2021/12/14 11:53:31;;;;;;;8.97;6.63;;;9.30;99.90;;;;;;5065379;28;20268;-78
2021/12/14 11:56:00;;;;;;;9.10;7.10;;;9.20;99.90;;;;;;5046971;28;20744;-79
2021/12/14 11:58:37;;;;;;;9.50;7.03;;;9.10;99.90;;;;;;5045588;28;20753;-77
2021/12/14 12:01:07;;;;;;;11.33;7.10;;;9.10;99.90;;;;;;5058390;28;20583;-81
2021/12/14 12:03:52;;;;;;;10.73;7.57;;;9.10;99.90;;;;;;5045548;28;20229;-79
2021/12/14 12:12:05;;;;;;;11.97;6.80;;;9.20;99.90;;;;;;5063208;28;20188;-79
2021/12/14 12:14:46;;;;;;;9.67;7.07;;;9.10;99.90;;;;;;5064290;28;20186;-81
2021/12/14 12:17:18;;;;;;;9.53;7.43;;;9.10;99.90;;;;;;5047010;28;20184;-80
2021/12/14 12:20:07;;;;;;;9.03;6.87;;;9.20;99.90;;;;;;5042212;28;20206;-77
2021/12/14 12:22:48;;;;;;;10.30;7.43;;;9.10;99.90;;;;;;5031404;28;20193;-79
2021/12/14 12:25:21;;;;;;;10.17;7.60;;;9.20;99.90;;;;;;5044481;28;20192;-78
2021/12/14 12:27:56;;;;;;;9.87;7.67;;;9.30;99.90;;;;;;5045239;28;20178;-80
2021/12/14 12:30:31;;;;;;;10.37;7.57;;;9.40;99.90;;;;;;5044254;28;20588;-78
2021/12/14 12:33:04;;;;;;;12.70;8.93;;;9.40;99.90;;;;;;5045223;28;20177;-78
2021/12/14 12:36:04;;;;;;;9.13;7.53;;;9.40;99.90;;;;;;5045853;28;20238;-81
2021/12/14 12:38:57;;;;;;;11.63;7.53;;;9.40;99.90;;;;;;4996870;28;20186;-78
2021/12/14 12:41:51;;;;;;;9.33;7.53;;;9.40;99.90;;;;;;5062327;28;20177;-76
2021/12/14 12:44:25;;;;;;;11.30;8.17;;;9.30;99.90;;;;;;5062720;28;20201;-79
2021/12/14 12:46:59;;;;;;;10.03;7.90;;;9.30;99.90;;;;;;5062518;28;20170;-78
2021/12/14 12:49:28;;;;;;;11.93;8.13;;;9.20;99.90;;;;;;5044404;28;20765;-78
2021/12/14 12:52:05;;;;;;;12.10;8.23;;;9.30;99.90;;;;;;5061680;28;20557;-80
2021/12/14 12:55:01;;;;;;;9.73;7.30;;;9.20;99.90;;;;;;5043423;28;20263;-81
2021/12/14 12:57:56;;;;;;;9.87;7.60;;;9.20;99.90;;;;;;5043202;28;20178;-81
2021/12/14 13:00:36;;;;;;;11.30;7.90;;;9.20;99.90;;;;;;5061566;28;20576;-77
2021/12/14 13:03:08;;;;;;;9.77;7.63;;;9.10;99.90;;;;;;5061110;28;20201;-78
2021/12/14 13:05:49;;;;;;;9.60;7.63;;;9.20;99.90;;;;;;5043258;28;20182;-79
2021/12/14 13:08:33;;;;;;;11.20;7.60;;;9.10;99.90;;;;;;5042989;28;20170;-81
2021/12/14 13:11:04;;;;;;;11.77;8.27;;;9.10;99.90;;;;;;5043201;28;20631;-77
2021/12/14 13:13:42;;;;;;;9.83;7.60;;;9.10;99.90;;;;;;5046867;28;20192;-79
2021/12/14 13:16:08;;;;;;;12.87;8.00;;;9.00;99.90;;;;;;5043623;28;20270;-77
2021/12/14 13:18:35;;;;;;;17.40;9.73;;;9.00;99.90;;;;;;5059900;28;20593;-78
2021/12/14 13:21:06;;;;;;;14.33;8.03;;;8.90;99.90;;;;;;5043286;28;20335;-80
2021/12/14 13:23:38;;;;;;;15.73;9.33;;;8.90;99.90;;;;;;5061317;28;20209;-79
2021/12/14 13:26:20;;;;;;;12.10;8.73;;;8.90;99.90;;;;;;5061262;28;20606;-79
2021/12/14 13:28:45;;;;;;;16.93;10.03;;;9.00;99.90;;;;;;5043416;28;20647;-81
2021/12/14 13:31:27;;;;;;;14.10;9.07;;;9.00;99.90;;;;;;5042883;28;20860;-80
2021/12/14 13:33:53;;;;;;;11.93;8.83;;;9.00;99.90;;;;;;5061542;28;20217;-77
2021/12/14 13:36:18;;;;;;;14.23;9.00;;;9.10;99.90;;;;;;5042862;28;20213;-79
2021/12/14 13:38:44;;;;;;;11.43;8.83;;;9.10;99.90;;;;;;5061314;28;20242;-79
2021/12/14 13:41:33;;;;;;;10.97;8.43;;;9.00;99.90;;;;;;5043018;28;20213;-80
2021/12/14 13:43:58;;;;;;;12.00;8.20;;;9.00;99.90;;;;;;5062229;28;20488;-79
2021/12/14 13:46:24;;;;;;;13.07;8.27;;;8.90;99.90;;;;;;5043781;28;20658;-79
2021/12/14 13:48:50;;;;;;;11.60;8.20;;;8.80;99.90;;;;;;5061908;28;20264;-79
2021/12/14 13:51:19;;;;;;;12.30;8.60;;;8.80;99.90;;;;;;5043810;28;20281;-81
2021/12/14 13:53:47;;;;;;;10.53;8.00;;;8.80;99.90;;;;;;5061717;28;20586;-80
2021/12/14 13:56:35;;;;;;;10.67;8.83;;;8.80;99.90;;;;;;5061438;28;20212;-78